createdAt,value
2017-12-27T00:04:18.512Z,61.00
2017-12-27T00:09:03.468Z,59.33
2017-12-27T00:23:03.549Z,58.33
2017-12-27T00:27:43.790Z,59.67
2017-12-27T00:46:38.503Z,60.33
2017-12-27T00:49:11.984Z,54.67
2017-12-27T00:51:47.723Z,52.67
2017-12-27T01:00:17.153Z,49.67
2017-12-27T01:05:40.896Z,49.33
2017-12-27T01:08:19.443Z,47.00
2017-12-27T01:10:56.352Z,52.33
2017-12-27T01:35:16.220Z,56.67
2017-12-27T01:37:50.107Z,55.33
2017-12-27T01:40:24.179Z,48.67
2017-12-27T01:43:02.974Z,50.33
2017-12-27T01:45:40.985Z,52.33
2017-12-27T01:48:14.575Z,53.00
2017-12-27T01:50:52.546Z,57.00
2017-12-27T01:53:26.997Z,54.00
2017-12-27T01:56:02.090Z,49.00
2017-12-27T01:58:43.357Z,56.67
2017-12-27T02:01:15.022Z,48.00
2017-12-27T02:03:46.655Z,50.00
2017-12-27T02:06:20.645Z,49.67
2017-12-27T02:08:52.163Z,46.00
2017-12-27T02:11:23.481Z,48.00
2017-12-27T02:13:54.916Z,49.33
2017-12-27T02:16:27.553Z,54.00
2017-12-27T02:18:59.398Z,48.67
2017-12-27T02:21:30.571Z,47.67
2017-12-27T02:24:02.954Z,54.33
2017-12-27T02:26:34.210Z,50.00
2017-12-27T02:29:10.580Z,54.00
2017-12-27T02:31:42.419Z,49.00
2017-12-27T02:35:27.559Z,47.67
2017-12-27T02:38:00.877Z,42.00
2017-12-27T02:40:35.532Z,46.67
2017-12-27T02:43:10.863Z,51.67
2017-12-27T02:45:43.907Z,49.33
2017-12-27T02:51:06.566Z,44.33
2017-12-27T02:53:40.267Z,45.33
2017-12-27T02:56:16.051Z,48.67
2017-12-27T02:58:47.324Z,46.67
2017-12-27T03:01:19.401Z,51.00
2017-12-27T03:03:53.248Z,47.67
2017-12-27T03:06:24.549Z,43.67
2017-12-27T03:14:02.641Z,41.00
2017-12-27T03:16:37.616Z,47.00
2017-12-27T03:19:14.469Z,42.00
2017-12-27T03:21:50.187Z,38.00
2017-12-27T03:24:22.958Z,43.67
2017-12-27T03:26:55.431Z,43.33
2017-12-27T03:29:27.910Z,44.00
2017-12-27T03:32:01.501Z,47.33
2017-12-27T03:34:33.216Z,47.67
2017-12-27T03:37:05.927Z,42.33
2017-12-27T03:42:37.656Z,42.33
2017-12-27T03:54:03.800Z,45.75
2017-12-27T03:56:38.303Z,44.00
2017-12-27T04:02:06.298Z,47.00
2017-12-27T04:04:39.059Z,36.00
2017-12-27T04:07:10.365Z,44.33
2017-12-27T04:09:41.753Z,44.00
2017-12-27T04:12:14.568Z,41.67
2017-12-27T04:14:49.250Z,43.67
2017-12-27T04:17:22.684Z,47.00
2017-12-27T04:20:12.727Z,39.00
2017-12-27T04:22:44.193Z,41.33
2017-12-27T04:25:15.737Z,46.00
2017-12-27T04:27:47.207Z,42.67
2017-12-27T04:30:26.114Z,41.33
2017-12-27T04:32:57.534Z,46.00
2017-12-27T04:35:28.954Z,37.33
2017-12-27T04:38:00.176Z,38.00
2017-12-27T04:40:31.370Z,42.33
2017-12-27T04:43:07.572Z,38.33
2017-12-27T04:45:38.721Z,43.67
2017-12-27T04:48:12.374Z,42.67
2017-12-27T04:50:55.638Z,40.00
2017-12-27T04:53:27.650Z,40.33
2017-12-27T04:55:59.351Z,37.00
2017-12-27T05:07:41.939Z,37.00
2017-12-27T05:10:16.078Z,38.33
2017-12-27T05:12:49.920Z,38.00
2017-12-27T05:15:24.656Z,35.00
2017-12-27T05:21:06.797Z,38.33
2017-12-27T05:23:42.333Z,36.33
2017-12-27T05:45:31.357Z,30.00
2017-12-27T06:07:08.333Z,37.67
2017-12-27T06:57:13.758Z,30.00
2017-12-27T07:02:57.109Z,29.00
2017-12-27T07:05:29.099Z,28.33
2017-12-27T07:08:00.749Z,24.67
2017-12-27T07:10:35.311Z,26.67
2017-12-27T07:38:26.605Z,23.00
2017-12-27T07:44:10.822Z,21.67
2017-12-27T07:56:33.214Z,25.67
2017-12-27T08:05:25.033Z,23.33
2017-12-27T08:14:26.518Z,21.00
2017-12-27T08:17:20.837Z,17.67
2017-12-27T08:19:58.508Z,15.33
2017-12-27T08:22:44.244Z,24.00
2017-12-27T08:34:50.091Z,21.33
2017-12-27T08:37:33.327Z,22.00
2017-12-27T08:40:11.841Z,23.67
2017-12-27T08:46:00.319Z,21.33
2017-12-27T08:48:40.740Z,22.00
2017-12-27T08:54:18.985Z,19.00
2017-12-27T08:56:56.688Z,26.67
2017-12-27T08:59:32.301Z,21.33
2017-12-27T09:05:14.413Z,14.67
2017-12-27T09:07:58.422Z,18.67
2017-12-27T09:10:52.649Z,19.67
2017-12-27T09:13:40.951Z,17.33
2017-12-27T09:34:53.309Z,29.67
2017-12-27T09:37:29.527Z,27.00
2017-12-27T09:40:07.359Z,28.00
